Time;durP1;ratioP1;P1;durP2;ratioP2;P2;SDS_P1;SDS_P2;PMS_P1;PMS_P2;Temp;Humidity;BMP_temperature;BMP_pressure;BME280_temperature;BME280_humidity;BME280_pressure;Samples;Min_cycle;Max_cycle;Signal;HPM_P1;HPM_P2
2022/01/04 00:01:22;;;;;;;0.65;0.40;;;;;;;9.69;72.01;99916.56;5047035;28;20124;-76
2022/01/04 00:03:48;;;;;;;0.60;0.43;;;;;;;9.65;72.55;99912.38;5062229;28;20036;-76
2022/01/04 00:06:14;;;;;;;1.38;1.08;;;;;;;9.51;72.87;99917.97;5061722;28;20112;-76
2022/01/04 00:08:40;;;;;;;1.60;0.50;;;;;;;9.63;72.67;99903.78;5067080;28;20112;-76
2022/01/04 00:11:41;;;;;;;0.63;0.32;;;;;;;9.60;72.57;99896.94;5052413;28;20416;-76
2022/01/04 00:13:54;;;;;;;0.40;0.30;;;;;;;9.55;72.64;99892.78;5059785;28;20062;-76
2022/01/04 00:16:19;;;;;;;1.25;0.40;;;;;;;9.58;71.28;99885.78;5063115;28;20493;-76
2022/01/04 00:18:46;;;;;;;0.47;0.40;;;;;;;9.45;71.85;99884.47;5064401;28;20109;-76
2022/01/04 00:21:12;;;;;;;0.30;0.30;;;;;;;9.50;71.75;99886.91;5065725;28;20047;-76
2022/01/04 00:23:37;;;;;;;0.85;0.55;;;;;;;9.47;72.23;99882.66;5067436;28;20040;-76
2022/01/04 00:26:03;;;;;;;0.52;0.30;;;;;;;9.43;72.31;99869.81;5064911;28;20033;-76
2022/01/04 00:28:29;;;;;;;0.30;0.30;;;;;;;9.44;71.71;99864.63;5064698;28;20106;-76
2022/01/04 00:30:54;;;;;;;0.40;0.30;;;;;;;9.42;71.95;99858.63;5062313;28;20047;-76
2022/01/04 00:33:20;;;;;;;0.73;0.40;;;;;;;9.52;72.44;99857.44;5051279;28;20382;-76
2022/01/04 00:35:46;;;;;;;1.90;0.40;;;;;;;9.54;71.84;99847.91;5072661;28;20043;-76
2022/01/04 00:38:12;;;;;;;0.95;0.38;;;;;;;9.38;71.97;99840.63;5066427;28;20037;-77
2022/01/04 00:40:38;;;;;;;1.02;0.70;;;;;;;9.26;72.68;99834.94;5065313;28;20050;-76
2022/01/04 00:43:04;;;;;;;0.63;0.32;;;;;;;9.36;72.56;99825.94;5046420;28;20249;-76
2022/01/04 00:45:32;;;;;;;2.20;0.40;;;;;;;9.48;72.63;99821.31;5035660;28;20047;-76
2022/01/04 00:50:28;;;;;;;1.75;0.47;;;;;;;9.39;72.49;99819.84;5065073;28;20033;-76
2022/01/04 00:52:55;;;;;;;0.20;0.20;;;;;;;9.44;72.55;99817.97;5065243;28;20024;-76
2022/01/04 00:55:21;;;;;;;0.28;0.20;;;;;;;9.43;72.23;99821.44;5057875;28;20746;-76
2022/01/04 00:57:46;;;;;;;1.98;0.40;;;;;;;9.53;71.56;99809.03;5063217;28;20489;-76
2022/01/04 01:00:15;;;;;;;1.20;0.25;;;;;;;9.43;72.00;99799.84;5064625;28;20115;-76
2022/01/04 01:02:41;;;;;;;0.88;0.40;;;;;;;9.39;72.14;99799.13;5063542;28;20059;-76
2022/01/04 01:05:08;;;;;;;0.80;0.40;;;;;;;9.46;71.97;99798.00;5046109;28;20378;-76
2022/01/04 01:07:34;;;;;;;0.20;0.20;;;;;;;9.40;72.52;99794.75;5065389;28;20848;-76
2022/01/04 01:12:35;;;;;;;0.60;0.40;;;;;;;9.53;71.69;99780.53;5065579;28;20379;-76
2022/01/04 01:15:03;;;;;;;1.55;0.50;;;;;;;9.42;71.94;99787.81;5067528;28;20029;-76
2022/01/04 01:17:29;;;;;;;0.43;0.30;;;;;;;9.42;72.16;99774.84;5058040;28;20074;-76
2022/01/04 01:19:54;;;;;;;0.30;0.30;;;;;;;9.36;72.26;99770.69;5066156;28;20496;-76
2022/01/04 01:22:20;;;;;;;1.27;0.40;;;;;;;9.50;71.86;99768.50;5067911;28;20041;-76
2022/01/04 01:24:45;;;;;;;0.20;0.20;;;;;;;9.42;71.96;99767.91;5059883;28;20044;-76
2022/01/04 01:27:10;;;;;;;1.38;0.28;;;;;;;9.42;71.55;99770.50;5066725;28;20039;-76
2022/01/04 01:29:36;;;;;;;2.55;0.40;;;;;;;9.45;71.80;99766.97;5064288;28;20039;-76
2022/01/04 01:32:01;;;;;;;0.55;0.47;;;;;;;9.37;72.15;99756.81;5069891;28;20033;-76
2022/01/04 01:34:27;;;;;;;0.52;0.38;;;;;;;9.27;72.13;99748.53;5067500;28;20048;-76
2022/01/04 01:36:52;;;;;;;0.55;0.35;;;;;;;9.24;72.70;99745.19;5067427;28;20072;-76
2022/01/04 01:39:18;;;;;;;1.90;0.50;;;;;;;9.34;71.82;99744.81;5064717;28;20040;-76
2022/01/04 01:41:43;;;;;;;1.27;0.35;;;;;;;9.28;72.14;99739.84;5066498;28;20036;-76
2022/01/04 01:44:09;;;;;;;0.68;0.40;;;;;;;9.42;71.46;99742.00;5061056;28;20029;-76
2022/01/04 01:46:34;;;;;;;0.75;0.50;;;;;;;9.27;71.94;99742.50;5064973;28;20116;-76
2022/01/04 01:49:00;;;;;;;0.57;0.28;;;;;;;9.36;72.50;99744.78;5065608;28;20036;-76
2022/01/04 01:51:28;;;;;;;1.27;0.43;;;;;;;9.38;72.13;99747.31;5065877;28;20044;-76
2022/01/04 01:53:54;;;;;;;1.40;0.85;;;;;;;9.40;71.74;99740.31;5058917;28;20619;-76
2022/01/04 01:56:19;;;;;;;0.52;0.40;;;;;;;9.42;71.84;99733.38;5066855;28;20123;-76
2022/01/04 01:58:46;;;;;;;3.55;0.85;;;;;;;9.34;72.34;99734.44;5061648;28;20041;-76
2022/01/04 02:01:12;;;;;;;0.20;0.20;;;;;;;9.40;71.32;99725.63;5063530;28;20052;-76
2022/01/04 02:03:38;;;;;;;1.35;0.65;;;;;;;9.32;72.49;99720.72;5045858;28;20037;-76
2022/01/04 02:06:04;;;;;;;1.55;0.50;;;;;;;9.35;70.98;99714.56;5065290;28;20032;-76
2022/01/04 02:08:30;;;;;;;0.40;0.40;;;;;;;9.28;71.78;99713.06;5049061;28;20036;-77
2022/01/04 02:10:58;;;;;;;1.23;0.30;;;;;;;9.35;71.98;99710.25;5066511;28;20401;-76
2022/01/04 02:13:24;;;;;;;0.88;0.40;;;;;;;9.34;72.17;99707.69;5046661;28;20037;-76
2022/01/04 02:15:59;;;;;;;0.35;0.30;;;;;;;9.49;71.97;99703.72;5064427;28;20040;-77
2022/01/04 02:18:25;;;;;;;;;;;;;;;9.35;71.82;99699.88;5066878;28;20041;-76
2022/01/04 02:20:50;;;;;;;1.08;0.40;;;;;;;9.20;71.79;99700.38;5068139;28;20335;-76
2022/01/04 02:23:16;;;;;;;1.23;0.55;;;;;;;9.26;72.28;99695.00;5063957;28;20040;-77
2022/01/04 02:25:41;;;;;;;1.02;0.40;;;;;;;9.32;72.49;99686.16;5062983;28;20035;-76
2022/01/04 02:28:07;;;;;;;1.83;0.50;;;;;;;9.35;72.12;99684.31;5065164;28;20509;-76
2022/01/04 02:30:33;;;;;;;0.32;0.32;;;;;;;9.29;71.83;99673.31;5047719;28;20123;-76
2022/01/04 02:32:59;;;;;;;0.75;0.30;;;;;;;9.39;71.49;99673.84;5062297;28;20412;-76
2022/01/04 02:35:30;;;;;;;2.30;0.50;;;;;;;9.33;71.11;99669.72;5063013;28;20025;-77
2022/01/04 02:37:57;;;;;;;0.57;0.50;;;;;;;9.49;71.18;99662.25;5061706;28;20171;-76
2022/01/04 02:40:23;;;;;;;0.68;0.40;;;;;;;9.58;70.50;99659.34;5059287;28;20036;-76
2022/01/04 02:42:50;;;;;;;0.47;0.30;;;;;;;9.30;71.14;99662.06;5063137;28;20040;-84
2022/01/04 02:45:15;;;;;;;1.15;0.40;;;;;;;9.46;70.65;99654.59;5063977;28;20033;-84
2022/01/04 02:47:41;;;;;;;0.50;0.43;;;;;;;9.34;71.60;99651.53;5062446;28;20025;-84
2022/01/04 02:50:08;;;;;;;1.75;0.60;;;;;;;9.47;70.97;99643.31;5063440;28;20371;-84
2022/01/04 02:52:34;;;;;;;0.65;0.40;;;;;;;9.28;71.60;99646.53;5064919;28;20494;-84
2022/01/04 02:55:01;;;;;;;0.63;0.40;;;;;;;9.35;71.82;99657.56;5032377;28;20048;-84
2022/01/04 02:57:26;;;;;;;0.75;0.40;;;;;;;9.22;72.11;99658.84;5065941;28;20040;-84
2022/01/04 02:59:52;;;;;;;2.55;0.50;;;;;;;9.35;71.84;99655.81;5064634;28;20033;-84
2022/01/04 03:02:18;;;;;;;0.30;0.30;;;;;;;9.25;72.45;99648.38;5066038;28;20189;-84
2022/01/04 03:04:43;;;;;;;0.50;0.30;;;;;;;9.35;71.90;99650.63;5064667;28;20021;-84
2022/01/04 03:07:09;;;;;;;1.13;0.60;;;;;;;9.39;72.17;99650.53;5059261;28;20528;-84
2022/01/04 03:09:35;;;;;;;0.75;0.30;;;;;;;9.34;71.66;99640.31;5066299;28;20032;-84
2022/01/04 03:12:00;;;;;;;2.05;0.82;;;;;;;9.28;71.33;99637.91;5048272;28;20123;-84
2022/01/04 03:14:25;;;;;;;0.38;0.32;;;;;;;9.24;71.25;99632.00;5044786;28;20526;-84
2022/01/04 03:16:51;;;;;;;0.45;0.30;;;;;;;9.17;72.51;99627.91;5046803;28;20035;-84
2022/01/04 03:19:16;;;;;;;1.13;0.40;;;;;;;9.26;72.07;99622.44;5067476;28;20036;-83
2022/01/04 03:21:44;;;;;;;1.20;0.40;;;;;;;9.21;72.40;99620.91;5059471;28;20060;-84
2022/01/04 03:24:12;;;;;;;0.40;0.40;;;;;;;9.09;71.94;99618.72;5059526;28;20086;-84
2022/01/04 03:26:38;;;;;;;1.02;0.43;;;;;;;9.30;72.04;99613.66;5060757;28;20539;-84
2022/01/04 03:29:06;;;;;;;1.02;0.50;;;;;;;9.23;71.71;99604.41;5061954;28;20025;-84
2022/01/04 03:31:32;;;;;;;1.15;0.40;;;;;;;9.21;71.73;99605.34;5063174;28;20400;-84
2022/01/04 03:33:57;;;;;;;1.02;0.55;;;;;;;9.20;71.88;99601.06;5063456;28;20033;-84
2022/01/04 03:36:24;;;;;;;1.08;0.40;;;;;;;9.32;71.29;99590.28;5047426;28;20050;-84
2022/01/04 03:38:54;;;;;;;0.65;0.40;;;;;;;9.29;70.84;99577.41;5065340;28;20040;-84
2022/01/04 03:41:21;;;;;;;0.50;0.40;;;;;;;9.36;71.22;99577.16;5056290;28;20964;-83
2022/01/04 03:43:48;;;;;;;0.55;0.40;;;;;;;9.32;71.45;99580.75;5066680;28;20873;-84
2022/01/04 03:46:13;;;;;;;1.00;0.50;;;;;;;9.15;72.18;99579.66;5066103;28;20040;-84
2022/01/04 03:48:39;;;;;;;1.70;0.47;;;;;;;9.20;71.74;99569.97;5058963;28;20048;-84
2022/01/04 03:51:07;;;;;;;1.98;0.50;;;;;;;9.29;71.70;99565.31;5057840;28;20033;-84
2022/01/04 03:53:34;;;;;;;1.42;1.23;;;;;;;9.21;71.74;99561.31;5067507;28;20040;-83
2022/01/04 03:55:59;;;;;;;1.98;0.68;;;;;;;9.07;72.35;99558.31;5068240;28;20033;-84
2022/01/04 03:58:25;;;;;;;0.70;0.40;;;;;;;9.21;71.40;99556.97;5064399;28;20044;-84
2022/01/04 04:00:50;;;;;;;1.10;0.50;;;;;;;9.01;72.37;99549.00;5061230;28;20101;-84
2022/01/04 04:03:17;;;;;;;0.68;0.47;;;;;;;9.04;72.37;99542.91;5067027;28;20032;-84
2022/01/04 04:05:42;;;;;;;1.05;0.50;;;;;;;9.09;72.16;99534.06;5068704;28;20036;-84
2022/01/04 04:08:08;;;;;;;0.90;0.47;;;;;;;9.19;71.37;99527.66;5063405;28;20025;-84
2022/01/04 04:10:35;;;;;;;0.50;0.40;;;;;;;9.25;71.44;99522.25;5068914;28;20074;-84
2022/01/04 04:13:00;;;;;;;2.80;0.82;;;;;;;9.15;71.60;99507.09;5063369;28;21097;-84
2022/01/04 04:15:26;;;;;;;1.30;0.70;;;;;;;9.19;72.20;99508.66;5065004;28;20263;-84
2022/01/04 04:17:51;;;;;;;1.23;0.57;;;;;;;9.25;72.61;99505.88;5063869;28;20060;-84
2022/01/04 04:20:17;;;;;;;0.50;0.50;;;;;;;9.19;72.03;99498.31;5069210;28;20029;-83
2022/01/04 04:22:43;;;;;;;0.85;0.63;;;;;;;9.23;71.64;99492.13;5064337;28;20051;-84
2022/01/04 04:25:09;;;;;;;0.82;0.40;;;;;;;9.08;72.06;99474.53;5063062;28;20044;-84
2022/01/04 04:27:34;;;;;;;0.68;0.40;;;;;;;9.19;71.46;99465.47;5067233;28;20041;-84
2022/01/04 04:30:00;;;;;;;0.63;0.40;;;;;;;9.25;70.84;99462.66;5064067;28;20033;-84
2022/01/04 04:32:25;;;;;;;1.60;0.70;;;;;;;9.07;72.24;99472.84;5066884;28;20028;-84
2022/01/04 04:34:51;;;;;;;3.03;0.50;;;;;;;9.24;71.55;99452.38;5050197;28;20143;-84
2022/01/04 04:37:16;;;;;;;1.08;0.60;;;;;;;9.13;72.38;99452.75;5070101;28;20048;-83
2022/01/04 04:39:42;;;;;;;1.27;0.60;;;;;;;9.08;71.57;99436.53;5068200;28;20501;-84
2022/01/04 04:42:08;;;;;;;0.77;0.57;;;;;;;9.10;71.60;99439.91;5070403;28;20036;-83
2022/01/04 04:44:33;;;;;;;0.43;0.43;;;;;;;9.14;72.26;99436.31;5055810;28;20049;-83
2022/01/04 04:46:59;;;;;;;0.65;0.45;;;;;;;9.15;71.82;99434.56;5066936;28;20488;-84
2022/01/04 04:49:24;;;;;;;1.42;0.55;;;;;;;9.20;71.90;99433.50;5066451;28;20037;-84
2022/01/04 04:51:50;;;;;;;1.27;0.60;;;;;;;9.13;71.74;99425.97;5063064;28;20040;-84
2022/01/04 04:54:15;;;;;;;1.33;0.60;;;;;;;9.06;72.07;99421.94;5068722;28;20039;-83
2022/01/04 04:56:41;;;;;;;1.42;0.60;;;;;;;9.02;72.87;99421.19;5051924;28;20193;-83
2022/01/04 04:59:07;;;;;;;1.10;0.40;;;;;;;9.05;71.84;99421.09;5069116;28;20044;-84
2022/01/04 05:01:33;;;;;;;0.52;0.40;;;;;;;9.10;71.74;99418.31;5049342;28;20028;-84
2022/01/04 05:03:59;;;;;;;1.08;0.50;;;;;;;9.08;72.12;99412.38;5068021;28;20528;-84
2022/01/04 05:06:25;;;;;;;1.33;0.70;;;;;;;9.12;71.63;99422.56;5067194;28;20032;-83
2022/01/04 05:08:51;;;;;;;1.17;0.55;;;;;;;9.07;71.88;99418.44;5065230;28;20044;-84
2022/01/04 05:11:17;;;;;;;2.38;0.68;;;;;;;9.10;71.57;99419.16;5049202;28;20041;-83
2022/01/04 05:13:43;;;;;;;0.93;0.50;;;;;;;9.07;72.49;99421.88;5052074;28;20602;-83
2022/01/04 05:16:08;;;;;;;0.73;0.43;;;;;;;9.04;72.14;99414.22;5067249;28;20033;-83
2022/01/04 05:18:33;;;;;;;0.90;0.52;;;;;;;8.95;72.07;99411.94;5067318;28;20086;-83
2022/01/04 05:20:59;;;;;;;1.30;0.50;;;;;;;9.04;72.40;99421.16;5067337;28;20039;-83
2022/01/04 05:23:24;;;;;;;1.08;0.47;;;;;;;9.02;72.19;99413.44;5065194;28;20048;-83
2022/01/04 05:25:50;;;;;;;0.95;0.50;;;;;;;8.95;71.46;99404.19;5065083;28;20039;-84
2022/01/04 05:28:15;;;;;;;0.85;0.60;;;;;;;8.92;71.45;99406.06;5047031;28;20439;-83
2022/01/04 05:30:41;;;;;;;1.08;0.60;;;;;;;8.93;71.90;99403.41;5047765;28;20516;-83
2022/01/04 05:33:06;;;;;;;1.45;0.50;;;;;;;8.90;71.65;99402.66;5063026;28;20128;-84
2022/01/04 05:35:32;;;;;;;1.23;0.70;;;;;;;8.84;72.59;99395.97;5065152;28;20512;-84
2022/01/04 05:37:57;;;;;;;0.70;0.55;;;;;;;8.87;72.65;99401.03;5066314;28;20082;-84
2022/01/04 05:40:23;;;;;;;0.63;0.40;;;;;;;8.80;72.30;99394.38;5066075;28;20075;-84
2022/01/04 05:42:48;;;;;;;2.80;0.60;;;;;;;8.86;72.38;99394.16;5063302;28;20036;-84
2022/01/04 05:45:14;;;;;;;0.60;0.52;;;;;;;9.01;71.72;99396.19;5064869;28;20073;-84
2022/01/04 05:47:40;;;;;;;5.88;2.10;;;;;;;8.87;73.18;99395.84;5065908;28;20646;-84
2022/01/04 05:50:06;;;;;;;1.80;1.02;;;;;;;9.02;72.50;99386.69;5066254;28;20059;-84
2022/01/04 05:52:32;;;;;;;3.45;1.08;;;;;;;9.09;72.32;99380.38;5066563;28;20124;-84
2022/01/04 05:54:58;;;;;;;0.90;0.50;;;;;;;9.03;72.00;99378.88;5064909;28;20036;-84
2022/01/04 05:57:23;;;;;;;1.88;0.65;;;;;;;9.05;72.32;99371.88;5061890;28;20110;-84
2022/01/04 05:59:49;;;;;;;1.83;0.90;;;;;;;9.11;71.43;99375.97;5065042;28;20051;-84
2022/01/04 06:02:14;;;;;;;0.85;0.63;;;;;;;8.98;71.76;99370.41;5063442;28;20024;-84
2022/01/04 06:04:40;;;;;;;1.38;0.65;;;;;;;8.98;71.67;99362.63;5066489;28;20032;-84
2022/01/04 06:07:05;;;;;;;1.33;0.50;;;;;;;9.05;71.88;99368.44;5067101;28;20043;-84
2022/01/04 06:09:40;;;;;;;0.85;0.55;;;;;;;9.01;72.66;99369.47;5065007;28;20090;-84
2022/01/04 06:14:50;;;;;;;;;;;;;;;8.90;72.96;99385.38;5050120;28;20035;-84
2022/01/04 06:15:05;;;;;;;0.82;0.50;;;;;;;8.85;72.88;99374.34;5063222;28;19923;-83
2022/01/04 06:17:39;;;;;;;2.35;0.73;;;;;;;8.85;72.80;99378.69;5058805;28;20036;-84
2022/01/04 06:20:06;;;;;;;0.55;0.55;;;;;;;9.03;72.10;99362.47;5036683;28;20039;-84
2022/01/04 06:22:32;;;;;;;0.32;0.30;;;;;;;8.90;72.93;99367.25;5065731;28;20040;-84
2022/01/04 06:24:58;;;;;;;1.33;0.60;;;;;;;8.99;71.61;99356.56;5065965;28;20533;-84
2022/01/04 06:27:25;;;;;;;1.27;0.82;;;;;;;9.05;71.58;99351.16;5053992;28;20115;-84
2022/01/04 06:29:51;;;;;;;3.47;1.20;;;;;;;9.00;71.72;99342.72;5064781;28;20028;-84
2022/01/04 06:32:17;;;;;;;2.80;1.10;;;;;;;9.05;72.16;99348.56;5040625;28;20078;-84
2022/01/04 06:34:43;;;;;;;1.17;0.80;;;;;;;8.93;71.52;99343.84;5061469;28;20107;-84
2022/01/04 06:37:10;;;;;;;1.52;0.70;;;;;;;8.94;72.17;99352.47;5059176;28;20066;-84
2022/01/04 06:39:36;;;;;;;3.00;0.77;;;;;;;8.88;71.80;99355.28;5066842;28;20449;-84
2022/01/04 06:42:02;;;;;;;1.15;0.75;;;;;;;9.01;71.34;99352.16;5062165;28;20119;-84
2022/01/04 06:44:28;;;;;;;1.45;1.17;;;;;;;8.91;71.43;99339.63;5067098;28;20119;-83
2022/01/04 06:46:54;;;;;;;1.25;1.00;;;;;;;8.87;71.98;99341.47;5066247;28;20126;-84
2022/01/04 06:49:20;;;;;;;0.93;0.57;;;;;;;8.86;72.38;99332.00;5066281;28;20078;-84
2022/01/04 06:51:47;;;;;;;1.55;1.00;;;;;;;8.99;71.17;99329.81;5062818;28;20041;-84
2022/01/04 06:54:14;;;;;;;1.63;1.10;;;;;;;8.88;71.86;99327.63;5058685;28;20067;-84
2022/01/04 06:56:41;;;;;;;1.95;0.77;;;;;;;8.81;72.09;99323.56;5057675;28;20037;-84
2022/01/04 06:59:07;;;;;;;1.85;0.98;;;;;;;8.90;72.37;99317.22;5062841;28;20036;-84
2022/01/04 07:01:35;;;;;;;3.67;1.20;;;;;;;8.91;71.79;99311.13;5065825;28;20040;-84
2022/01/04 07:04:00;;;;;;;2.05;1.27;;;;;;;9.15;70.87;99303.28;5045319;28;20047;-84
2022/01/04 07:06:26;;;;;;;9.88;5.03;;;;;;;9.05;71.71;99303.69;5068380;28;20028;-84
2022/01/04 07:08:52;;;;;;;11.73;5.45;;;;;;;9.16;71.01;99301.53;5048479;28;20190;-83
2022/01/04 07:11:18;;;;;;;8.05;4.70;;;;;;;9.09;71.34;99294.91;5063846;28;20588;-83
2022/01/04 07:13:44;;;;;;;12.15;6.28;;;;;;;8.99;71.45;99297.00;5060775;28;20033;-84
2022/01/04 07:16:10;;;;;;;21.45;9.88;;;;;;;9.25;70.63;99301.16;5065798;28;20127;-84
2022/01/04 07:18:36;;;;;;;21.27;9.55;;;;;;;9.19;70.72;99302.25;5061795;28;20508;-84
2022/01/04 07:21:01;;;;;;;19.08;8.48;;;;;;;9.25;70.23;99291.66;5045548;28;20073;-84
2022/01/04 07:23:27;;;;;;;34.22;14.65;;;;;;;9.17;70.52;99283.34;5063263;28;20032;-84
2022/01/04 07:25:54;;;;;;;32.03;12.45;;;;;;;9.23;70.49;99290.03;5048472;28;20024;-84
2022/01/04 07:28:20;;;;;;;21.80;9.63;;;;;;;9.06;71.17;99288.09;5044859;28;20067;-84
2022/01/04 07:30:46;;;;;;;15.13;6.60;;;;;;;9.04;71.08;99289.88;5064173;28;20033;-84
2022/01/04 07:33:13;;;;;;;16.10;7.15;;;;;;;8.93;71.60;99289.47;5046351;28;20044;-84
2022/01/04 07:35:38;;;;;;;20.02;9.00;;;;;;;8.98;71.58;99292.72;5065608;28;20093;-84
2022/01/04 07:38:04;;;;;;;12.68;6.53;;;;;;;9.05;71.51;99288.16;5064427;28;20037;-85
2022/01/04 07:40:30;;;;;;;13.13;6.18;;;;;;;9.11;70.69;99296.53;5047606;28;20049;-84
2022/01/04 07:42:59;;;;;;;9.00;4.95;;;;;;;9.02;70.97;99293.44;5064013;28;20033;-84
2022/01/04 07:45:30;;;;;;;8.88;4.63;;;;;;;9.07;71.35;99300.13;5030746;28;20055;-84
2022/01/04 07:47:56;;;;;;;6.82;3.72;;;;;;;9.22;70.55;99288.34;5060766;28;20120;-84
2022/01/04 07:50:22;;;;;;;3.83;3.15;;;;;;;8.99;71.47;99296.16;5065082;28;20055;-84
2022/01/04 07:52:48;;;;;;;3.33;2.38;;;;;;;9.09;70.92;99293.16;5062473;28;20028;-84
2022/01/04 07:55:14;;;;;;;4.28;2.33;;;;;;;8.92;71.34;99295.53;5064221;28;20048;-84
2022/01/04 07:57:41;;;;;;;3.13;1.75;;;;;;;8.91;72.02;99286.09;5059297;28;20052;-84
2022/01/04 08:00:09;;;;;;;3.47;1.60;;;;;;;8.87;72.00;99291.44;5062310;28;20029;-84
2022/01/04 08:02:34;;;;;;;3.85;1.67;;;;;;;8.91;72.50;99288.69;5051182;28;20036;-84
2022/01/04 08:05:00;;;;;;;5.18;1.50;;;;;;;8.96;71.83;99291.94;5066179;28;20135;-84
2022/01/04 08:07:25;;;;;;;3.60;1.60;;;;;;;9.02;72.07;99303.81;5062309;28;20513;-84
2022/01/04 08:09:52;;;;;;;3.15;1.33;;;;;;;8.85;72.35;99296.69;5062895;28;20040;-84
2022/01/04 08:12:19;;;;;;;3.20;1.33;;;;;;;9.03;71.56;99298.56;5061411;28;20075;-84
2022/01/04 08:14:45;;;;;;;2.10;1.60;;;;;;;9.12;71.58;99306.00;5065495;28;20029;-84
2022/01/04 08:17:11;;;;;;;3.17;1.33;;;;;;;8.97;71.97;99301.41;5065368;28;20040;-84
2022/01/04 08:19:36;;;;;;;2.53;1.25;;;;;;;8.77;72.83;99303.91;5065906;28;20040;-84
2022/01/04 08:22:02;;;;;;;2.20;1.40;;;;;;;8.77;72.75;99303.91;5057285;28;20712;-84
2022/01/04 08:24:28;;;;;;;1.90;1.17;;;;;;;8.92;72.86;99298.13;5048684;28;20051;-84
2022/01/04 08:26:53;;;;;;;3.35;2.00;;;;;;;8.90;72.96;99294.75;5068753;28;20032;-84
2022/01/04 08:29:19;;;;;;;3.20;2.00;;;;;;;8.96;72.56;99296.25;5063371;28;20114;-84
2022/01/04 08:31:44;;;;;;;5.63;2.67;;;;;;;8.90;72.78;99294.75;5047330;28;20557;-84
2022/01/04 08:34:09;;;;;;;16.38;7.70;;;;;;;8.89;72.50;99290.47;5064813;28;20028;-84
2022/01/04 08:36:37;;;;;;;33.90;15.88;;;;;;;8.91;72.96;99293.00;5059707;28;20053;-84
2022/01/04 08:39:03;;;;;;;36.97;15.30;;;;;;;8.93;72.36;99275.66;5053313;28;20062;-84
2022/01/04 08:41:28;;;;;;;39.00;16.27;;;;;;;8.86;73.42;99282.81;5066112;28;20125;-84
2022/01/04 08:43:55;;;;;;;25.73;10.32;;;;;;;8.99;71.85;99278.00;5067735;28;20135;-84
2022/01/04 08:46:22;;;;;;;25.98;10.20;;;;;;;9.02;71.95;99270.13;5063092;28;20063;-84
2022/01/04 08:48:48;;;;;;;27.77;8.90;;;;;;;8.97;71.79;99267.72;5068603;28;20061;-84
2022/01/04 08:51:13;;;;;;;14.77;6.13;;;;;;;9.01;71.71;99268.47;5066584;28;20091;-84
2022/01/04 08:53:39;;;;;;;14.65;6.57;;;;;;;8.96;72.68;99263.44;5050530;28;20596;-84
2022/01/04 08:56:05;;;;;;;46.45;18.17;;;;;;;9.04;72.04;99260.56;5066911;28;20431;-84
2022/01/04 08:58:30;;;;;;;24.05;9.98;;;;;;;8.94;71.99;99262.66;5068698;28;20044;-84
2022/01/04 09:00:56;;;;;;;6.85;2.72;;;;;;;9.02;72.03;99267.53;5067348;28;20194;-84
2022/01/04 09:03:22;;;;;;;2.25;1.35;;;;;;;9.03;72.06;99272.69;5067328;28;20040;-84
2022/01/04 09:05:47;;;;;;;3.10;2.05;;;;;;;9.02;71.84;99277.91;5066042;28;20089;-84
2022/01/04 09:08:13;;;;;;;6.07;1.83;;;;;;;9.12;71.86;99279.25;5069935;28;20028;-83
2022/01/04 09:10:38;;;;;;;2.17;1.30;;;;;;;9.02;72.16;99285.66;5065002;28;20047;-84
2022/01/04 09:13:13;;;;;;;1.92;1.17;;;;;;;9.06;72.36;99284.66;5064776;28;20070;-84
2022/01/04 09:20:53;;;;;;;5.53;3.28;;;;;;;9.02;71.53;99296.88;5069048;28;20400;-84
2022/01/04 09:23:21;;;;;;;10.35;8.20;;;;;;;9.03;72.31;99295.13;5065981;28;20028;-83
2022/01/04 09:25:48;;;;;;;7.07;6.00;;;;;;;9.07;72.59;99307.06;5047706;28;20462;-81
2022/01/04 09:28:15;;;;;;;5.45;3.08;;;;;;;9.10;72.38;99306.94;5064244;28;20838;-81
2022/01/04 09:30:43;;;;;;;2.42;1.98;;;;;;;9.09;71.56;99298.34;5047006;28;20043;-81
2022/01/04 09:33:09;;;;;;;1.77;1.33;;;;;;;9.14;72.83;99303.34;5068829;28;20492;-81
2022/01/04 09:35:36;;;;;;;5.18;1.85;;;;;;;9.11;71.62;99314.66;5066895;28;20052;-81
2022/01/04 09:38:02;;;;;;;3.10;1.58;;;;;;;9.00;72.15;99319.41;5054475;28;20577;-81
2022/01/04 09:40:28;;;;;;;3.00;1.05;;;;;;;9.13;71.18;99322.38;5056935;28;20044;-81
2022/01/04 09:42:54;;;;;;;1.25;0.90;;;;;;;9.09;72.04;99326.84;5068698;28;20124;-81
2022/01/04 09:45:20;;;;;;;2.05;0.90;;;;;;;9.07;71.56;99307.91;5065890;28;20052;-82
2022/01/04 09:47:46;;;;;;;2.30;0.70;;;;;;;9.04;72.39;99308.00;5051135;28;20037;-84
2022/01/04 09:50:12;;;;;;;9.20;2.00;;;;;;;9.20;72.09;99297.91;5066428;28;20107;-80
2022/01/04 09:52:42;;;;;;;2.13;0.98;;;;;;;9.03;72.13;99300.31;5048075;28;20120;-84
2022/01/04 09:55:09;;;;;;;4.10;1.67;;;;;;;9.11;72.11;99306.91;5067294;28;20123;-84
2022/01/04 09:57:35;;;;;;;2.53;0.90;;;;;;;9.09;72.34;99300.09;5067524;28;20515;-84
2022/01/04 10:00:02;;;;;;;1.23;1.05;;;;;;;9.06;72.48;99295.88;5065588;28;20032;-84
2022/01/04 10:02:30;;;;;;;2.65;1.25;;;;;;;9.03;72.00;99305.50;5062636;28;20032;-83
2022/01/04 10:05:12;;;;;;;3.53;1.10;;;;;;;9.08;72.58;99313.94;5065547;28;20504;-84
2022/01/04 10:07:38;;;;;;;2.03;0.75;;;;;;;9.03;72.22;99311.53;5067197;28;20036;-84
2022/01/04 10:10:05;;;;;;;3.35;1.08;;;;;;;9.08;72.05;99300.97;5066807;28;20131;-84
2022/01/04 10:12:51;;;;;;;2.92;1.05;;;;;;;9.19;71.36;99286.72;5069677;28;20074;-84
2022/01/04 10:15:41;;;;;;;3.08;1.08;;;;;;;9.04;71.19;99271.75;5069522;28;20028;-84
2022/01/04 10:18:13;;;;;;;1.38;0.93;;;;;;;9.17;71.39;99274.72;5064715;28;20054;-84
2022/01/04 10:20:46;;;;;;;2.13;0.90;;;;;;;9.19;71.74;99271.16;5063006;28;20805;-83
2022/01/04 10:23:15;;;;;;;3.45;0.90;;;;;;;9.19;71.05;99252.19;5062713;28;20029;-83
2022/01/04 10:25:41;;;;;;;1.73;0.80;;;;;;;9.08;71.23;99255.19;5066885;28;20024;-84
2022/01/04 10:28:07;;;;;;;1.83;0.73;;;;;;;8.94;71.98;99257.50;5069477;28;20044;-84
2022/01/04 10:30:38;;;;;;;1.83;0.90;;;;;;;9.12;71.24;99251.59;5067612;28;20037;-84
2022/01/04 10:33:09;;;;;;;1.88;0.98;;;;;;;9.13;71.29;99261.03;5069019;28;20043;-84
2022/01/04 10:35:43;;;;;;;1.75;0.70;;;;;;;9.15;71.32;99266.19;5074689;28;20496;-83
2022/01/04 10:38:27;;;;;;;2.08;0.70;;;;;;;9.10;70.94;99270.66;5045629;28;20035;-84
2022/01/04 10:41:05;;;;;;;1.30;0.73;;;;;;;9.21;70.91;99295.28;5065602;28;20060;-84
2022/01/04 10:43:39;;;;;;;1.58;1.05;;;;;;;9.30;70.47;99317.41;5066817;28;20089;-84
2022/01/04 10:46:05;;;;;;;2.05;0.93;;;;;;;9.28;70.23;99314.84;5061897;28;20039;-83
2022/01/04 10:48:34;;;;;;;2.80;1.30;;;;;;;9.10;71.25;99317.28;5040629;28;20025;-84
2022/01/04 10:51:09;;;;;;;4.45;2.20;;;;;;;9.09;71.65;99316.47;5043652;28;20035;-84
2022/01/04 10:53:38;;;;;;;4.10;1.92;;;;;;;9.19;70.37;99315.22;5029763;28;20029;-83
2022/01/04 10:56:11;;;;;;;46.03;11.48;;;;;;;9.20;70.42;99306.53;5039453;28;20040;-84
2022/01/04 10:58:46;;;;;;;56.22;13.02;;;;;;;9.07;71.76;99296.69;5048863;28;20530;-84
2022/01/04 11:01:19;;;;;;;50.55;17.55;;;;;;;9.08;71.91;99291.47;5043937;28;20091;-84
2022/01/04 11:03:51;;;;;;;65.10;17.75;;;;;;;9.06;72.49;99288.09;5040223;28;20409;-84
2022/01/04 11:06:26;;;;;;;39.67;12.70;;;;;;;9.27;71.28;99295.06;5026861;28;20051;-84
2022/01/04 11:08:51;;;;;;;53.28;12.98;;;;;;;9.22;71.95;99304.72;5046529;28;20029;-83
2022/01/04 11:11:17;;;;;;;19.88;6.43;;;;;;;9.09;71.28;99292.31;5042761;28;20033;-83
2022/01/04 11:13:43;;;;;;;16.58;4.13;;;;;;;9.16;71.73;99292.00;5043492;28;20026;-84
2022/01/04 11:16:09;;;;;;;14.85;4.53;;;;;;;9.12;72.43;99293.03;5045570;28;20048;-84
2022/01/04 11:18:42;;;;;;;36.22;9.20;;;;;;;9.18;72.83;99292.81;5045503;28;20029;-84
2022/01/04 11:21:13;;;;;;;19.40;7.15;;;;;;;9.15;72.23;99298.13;5043235;28;20120;-84
2022/01/04 11:23:40;;;;;;;15.50;6.95;;;;;;;9.17;71.78;99280.75;5015804;28;20053;-84
2022/01/04 11:26:06;;;;;;;11.13;4.65;;;;;;;9.20;72.16;99283.22;5049296;28;20036;-84
2022/01/04 11:28:32;;;;;;;3.92;2.33;;;;;;;9.36;71.46;99297.25;5045949;28;20045;-84
2022/01/04 11:31:18;;;;;;;4.40;2.30;;;;;;;9.26;71.51;99302.88;5046072;28;20045;-84
2022/01/04 11:34:06;;;;;;;5.22;1.80;;;;;;;9.38;70.49;99301.53;5044475;28;20520;-84
2022/01/04 11:36:38;;;;;;;1.77;0.93;;;;;;;9.25;70.60;99314.13;5036488;28;20037;-84
2022/01/04 11:39:29;;;;;;;4.13;1.10;;;;;;;9.16;71.28;99312.72;5044592;28;20041;-84
2022/01/04 11:41:56;;;;;;;2.30;1.08;;;;;;;9.23;71.58;99315.94;5043463;28;20497;-84
2022/01/04 11:44:25;;;;;;;2.05;1.10;;;;;;;9.20;71.84;99310.88;5048677;28;20386;-83
2022/01/04 11:47:25;;;;;;;2.85;1.65;;;;;;;9.07;71.65;99315.66;5036193;28;20025;-84
2022/01/04 11:50:23;;;;;;;3.00;1.40;;;;;;;9.14;72.65;99306.78;5059463;28;20397;-84
2022/01/04 11:52:58;;;;;;;4.15;2.72;;;;;;;9.23;72.36;99300.41;5064065;28;20131;-84